LIMZ/CUF METAR and TAF weather

Enter ICAO airport designator
Station Type Date Time Source
LIMZ METAR 2019/10/21 18:50 UTC NOAA

LIMZ 211850Z 34003KT 9999 SCT004 OVC030 15/15 Q1022


Station Type Date Time Source
LIMZ Decoded METAR 2019/10/21 18:50 UTC NOAA

Cuneo / Levaldigi, Italy (LIMZ) 44-32-47N 007-37-20E
Oct 21, 2019 - 02:50 PM EDT / 2019.10.21 1850 UTC
Wind: from the NNW (340 degrees) at 3 MPH (3 KT):0
Visibility: greater than 7 mile(s):0
Sky conditions: overcast
Temperature: 59 F (15 C)
Dew Point: 59 F (15 C)
Relative Humidity: 100%
Pressure (altimeter): 30.18 in. Hg (1022 hPa)
ob: LIMZ 211850Z 34003KT 9999 SCT004 OVC030 15/15 Q1022
cycle: 19

Station Type Date Time Source
LIMZ TAF 2019/10/21 18:21 UTC NOAA

TAF LIMZ 211700Z 2118/2218 VRB05KT 4000 BR BKN020
TEMPO 2122/2207 0600 FG BKN005
TEMPO 2209/2212 RA

Example: see airport list